Logo AVAMET
Benvolgut visitant, si us plau, ingressa Recuperar contrasenya
AVAMET paisatges

Barx la Visteta

Dades diàries. Acumulats / Últims 30 dies disponibles

Data Temperatura (°C) Humitat rel. (%) Pressió rel. (hPa) Vent (km/h) Precipitació
Mínima Mitjana Màxima Amplitud
tèrmica
Mínima Mitjana Màxima Mínima Mitjana Màxima Predom. Mitjana Ràfega
màxima
Total
(mm)
Índex-n
Mínima Mitjana Màxima Mínima Mitjana Màxima n
0 a 1
P0 max
mm 5'
Dades mensuals acumulades fins l'últim dia disponible
10/2020 7,2 12,2 18,7 17,5 17,9 22,9 30,3 23,1 20 63 94 991 1.016 1.025   6,9 75,8 18,9
Dades anuals acumulades fins l'últim dia disponible
2020 2,1 13,4 22,4 17,9 8,1 22,9 38,1 36,0 20 70 98 991 1.018 1.035   6,5 88,8 782,0
Últims 30 dies disponibles
21-10-2020 14,6     18,9     24,2 9,6 58 76 94 1.009 1.011 1.014 S 4,8 33,3 0,2
20-10-2020 11,2     15,2     17,9 6,7 83 88 93 1.010 1.016 1.019 SSE 3,8 14,8 0,2
19-10-2020 10,2     15,5     20,4 10,2 66 80 94 1.019 1.021 1.022 SSE 5,4 22,2 0,2
18-10-2020 9,1     14,9     20,8 11,7 64 78 91 1.019 1.021 1.022 SSE 4,6 20,4 0,0
17-10-2020 7,2     14,4     22,3 15,1 29 56 83 1.016 1.017 1.019 SSE 5,8 27,8 0,0
16-10-2020 7,7     13,0     18,4 10,7 34 54 73 1.016 1.017 1.019 S 5,9 29,6 0,0
15-10-2020 11,6     15,3     19,9 8,3 30 51 72 1.013 1.015 1.017 O 4,9 27,8 0,0
14-10-2020 11,8     15,3     20,1 8,3 48 66 84 1.008 1.010 1.014 SSE 5,2 25,9 0,0
13-10-2020 11,6     19,0     25,9 14,3 35 50 64 1.011 1.015 1.019 SSO 7,4 25,9 0,0
12-10-2020 10,6     15,2     21,2 10,6 30 48 65 1.018 1.021 1.023 SSO 6,7 29,6 0,0
11-10-2020 12,6     16,7     20,6 8,0 45 70 94 1.019 1.021 1.023 NE 5,6 25,9 0,0
10-10-2020 15,1     19,2     23,2 8,1 70 81 92 1.019 1.021 1.023 SE 3,2 37,0 8,4
09-10-2020 16,1     20,3     25,4 9,3 66 78 90 1.020 1.021 1.023 SSO 4,2 18,5 0,0
08-10-2020 13,7     19,8     23,8 10,1 54 72 89 1.021 1.023 1.025 SSE 6,6 31,4 0,0
07-10-2020 18,7     23,2     28,9 10,2 32 48 63 1.019 1.020 1.022 SSE 9,1 35,1 0,0
06-10-2020 11,9     20,0     27,3 15,4 39 53 66 1.018 1.020 1.022 SSO 7,9 27,8 0,0
05-10-2020 14,2     17,5     22,0 7,8 35 51 66 1.012 1.015 1.020 SSO 8,3 25,9 0,0
04-10-2020 12,3     17,0     22,4 10,1 40 52 64 1.007 1.010 1.012 SSO 10,0 42,5 0,0
03-10-2020 10,8     15,2     20,3 9,5 37 51 65 1.001 1.006 1.011 SO 10,7 40,7 0,0
02-10-2020 10,4     18,9     25,0 14,6 45 66 86 991 998 1.005 SSO 18,7 75,8 9,9 0,32 1,10
01-10-2020 15,3     23,2     30,3 15,0 20 56 91 1.005 1.009 1.013 SSO 6,9 31,4 0,0
30-09-2020 12,6     18,4     25,0 12,4 65 78 91 1.015 S 4,7 18,5 0,0
29-09-2020 11,8     17,1     22,9 11,1 63 77 91 1.018 SE 4,8 24,1 0,0
28-09-2020 10,2     16,7     23,7 13,5 35 57 78 1.014 1.016 1.019 S 5,4 29,6 0,0
27-09-2020 12,6     19,0     22,7 10,1 29 47 65 1.009 1.011 1.014 S 8,2 35,1 0,0
26-09-2020 13,7     19,1     24,4 10,7 32 42 51 1.011 1.016 1.020 O 7,2 31,4 0,0
25-09-2020 17,9     21,1     23,9 6,0 26 45 63 1.013 1.015 1.020 O 8,9 44,4 0,0
24-09-2020 20,8     24,5     29,0 8,2 40 52 63 1.011 1.013 1.014 SO 8,3 42,5 0,0
23-09-2020 20,4     23,6     27,9 7,5 43 56 69 1.010 1.012 1.013 S 5,9 25,9 0,0
22-09-2020 16,4     22,2     26,9 10,5 48 70 91 1.011 1.014 1.016 SSE 5,8 20,4 0,0
Últims 13 mesos disponibles
09/2020 10,2 16,7 20,8 21,5 21,3 26,6 29,9 19,7 42 67 80 1.011 1.017 1.023 SSE 6,3 55,5 21,4
08/2020 13,2 20,2 22,4 25,4 23,7 31,0 38,1 24,9 49 69 82 1.004 1.013 1.018 SSE 5,9 42,5 3,6
07/2020 16,7 19,5 21,7 24,3 25,6 29,7 35,8 19,1 55 73 84 1.011 1.016 1.020 NE 5,5 64,8 16,1
06/2020 12,4 16,6 20,7 21,8 19,7 27,4 31,2 18,8 43 69 86 1.005 1.014 1.020 SO 6,2 42,5 39,1
05/2020 10,3 13,8 16,6 19,0 18,2 24,4 31,3 21,0 49 69 84 1.005 1.017 1.027 SSE 6,5 46,3 48,4
04/2020 6,0 10,3 16,2 13,8 13,7 18,0 24,3 18,3 51 76 94 1.006 1.016 1.026 SSE 5,6 46,3 67,5
03/2020 3,6 9,0 15,0 12,4 8,1 16,3 23,6 20,0 45 72 93 1.007 1.017 1.026 NE 7,8 88,8 200,1
02/2020 4,1 8,6 14,6 13,5 12,4 19,1 23,9 19,8 34 69 89 1.014 1.025 1.033 S 6,9 50,0 11,9
01/2020 2,1 6,1 13,3 9,7 9,9 14,0 18,7 16,6 57 77 96 1.015 1.025 1.033 S 7,9 85,1 355,0
12/2019 4,7 9,2 17,2 12,5 10,6 16,2 23,4 18,7 50 72 94 1.002 1.018 1.033 S 9,8 85,1 388,0
11/2019 4,4 10,3 19,2 13,6 12,8 17,4 24,7 20,3 48 61 78 999 1.011 1.019 SO 10,2 74,0 14,4
10/2019 9,9 14,1 18,3 18,5 14,2 23,3 32,0 22,1 43 70 91 1.008 1.016 1.022 S 5,3 42,5 53,9
09/2019 12,2 17,9 22,2 22,0 20,1 26,1 33,1 20,9 48 76 98 1.009 1.017 1.024 SSE 6,7 75,8 167,3
Tots els anys disponibles
2019 3,0 13,8 24,6 18,1 10,6 23,1 39,7 36,7 13 58 98 999 1.016 1.029 S 7,2 75,8 1.086,7
Temperatura (°C)
Humitat relativa (%)
Velocitat del vent i ràfega màxima (km/h)
Direcció del vent (°)
Pressió (hPa)
Precipitació (mm)
Nota sobre les dades: s'avisa a l'usuari de la provisionalitat i no oficialitat d'aquestes dades
Logo AVAMET blanc
Web allotjada a Sollutia
Llicència de Creative CommonsLa web d'AVAMET i els seus continguts estan subjectes a una llicència de
Reconeixement - No Comercial - Compartir igual
Últimes estacions: Sueca - Mareny de Barraquetes (Inforatge), La Vilavella - Centre (Ajuntament Soci), Alfondeguilla (Soci), Santa Magdalena de Polpís (Soci),  Benafigos (Aj. Soci), Carlet - Ajuntament (Inforatge), Montroi (Inforatge), Bronchales (Limítrofe-Terol/Aj. Soci), Sueca - Muntanyeta dels Sants (Inforatge), Vilamarxant - Ajuntament (Aj. Soci/Inforatge) - - -